sensor_id;sensor_type;location;lat;lon;timestamp;P1;durP1;ratioP1;P2;durP2;ratioP2
47856;SDS011;33618;49.972;8.242;2022-11-11T00:01:22;18.27;;;8.90;;
47856;SDS011;33618;49.972;8.242;2022-11-11T00:03:53;15.68;;;8.80;;
47856;SDS011;33618;49.972;8.242;2022-11-11T00:06:21;19.88;;;8.90;;
47856;SDS011;33618;49.972;8.242;2022-11-11T00:08:48;14.32;;;8.65;;
47856;SDS011;33618;49.972;8.242;2022-11-11T00:11:15;16.85;;;8.40;;
47856;SDS011;33618;49.972;8.242;2022-11-11T00:13:42;16.45;;;8.48;;
47856;SDS011;33618;49.972;8.242;2022-11-11T00:16:14;15.25;;;8.23;;
47856;SDS011;33618;49.972;8.242;2022-11-11T00:18:44;19.70;;;8.80;;
47856;SDS011;33618;49.972;8.242;2022-11-11T00:21:30;18.85;;;8.57;;
47856;SDS011;33618;49.972;8.242;2022-11-11T00:24:05;23.58;;;9.68;;
47856;SDS011;33618;49.972;8.242;2022-11-11T00:27:08;17.52;;;8.88;;
47856;SDS011;33618;49.972;8.242;2022-11-11T00:29:36;25.38;;;10.55;;
47856;SDS011;33618;49.972;8.242;2022-11-11T00:32:04;20.88;;;10.10;;
47856;SDS011;33618;49.972;8.242;2022-11-11T00:34:54;23.33;;;9.80;;
47856;SDS011;33618;49.972;8.242;2022-11-11T00:37:41;21.38;;;10.07;;
47856;SDS011;33618;49.972;8.242;2022-11-11T00:40:11;25.92;;;9.77;;
47856;SDS011;33618;49.972;8.242;2022-11-11T00:45:14;23.20;;;10.52;;
47856;SDS011;33618;49.972;8.242;2022-11-11T00:47:41;26.45;;;11.18;;
47856;SDS011;33618;49.972;8.242;2022-11-11T00:50:27;25.95;;;10.93;;
47856;SDS011;33618;49.972;8.242;2022-11-11T00:53:17;66.47;;;11.95;;
47856;SDS011;33618;49.972;8.242;2022-11-11T00:55:52;64.70;;;12.63;;
47856;SDS011;33618;49.972;8.242;2022-11-11T00:58:20;73.55;;;13.15;;
47856;SDS011;33618;49.972;8.242;2022-11-11T01:00:49;202.63;;;15.52;;
47856;SDS011;33618;49.972;8.242;2022-11-11T01:03:19;169.25;;;14.90;;
47856;SDS011;33618;49.972;8.242;2022-11-11T01:05:47;126.47;;;13.60;;
47856;SDS011;33618;49.972;8.242;2022-11-11T01:08:15;107.72;;;14.15;;
47856;SDS011;33618;49.972;8.242;2022-11-11T01:10:42;50.05;;;11.57;;
47856;SDS011;33618;49.972;8.242;2022-11-11T01:13:14;62.17;;;11.05;;
47856;SDS011;33618;49.972;8.242;2022-11-11T01:15:43;30.40;;;10.20;;
47856;SDS011;33618;49.972;8.242;2022-11-11T01:18:13;27.15;;;9.02;;
47856;SDS011;33618;49.972;8.242;2022-11-11T01:20:41;21.92;;;9.02;;
47856;SDS011;33618;49.972;8.242;2022-11-11T01:23:09;27.85;;;9.38;;
47856;SDS011;33618;49.972;8.242;2022-11-11T01:25:38;35.55;;;8.80;;
47856;SDS011;33618;49.972;8.242;2022-11-11T01:28:07;38.50;;;9.50;;
47856;SDS011;33618;49.972;8.242;2022-11-11T01:30:35;35.72;;;9.75;;
47856;SDS011;33618;49.972;8.242;2022-11-11T01:33:02;69.28;;;10.90;;
47856;SDS011;33618;49.972;8.242;2022-11-11T01:35:30;27.23;;;9.18;;
47856;SDS011;33618;49.972;8.242;2022-11-11T01:37:57;46.75;;;7.90;;
47856;SDS011;33618;49.972;8.242;2022-11-11T01:40:25;41.72;;;6.88;;
47856;SDS011;33618;49.972;8.242;2022-11-11T01:45:45;57.05;;;6.50;;
47856;SDS011;33618;49.972;8.242;2022-11-11T01:48:15;36.83;;;6.70;;
47856;SDS011;33618;49.972;8.242;2022-11-11T01:56:58;92.55;;;7.50;;
47856;SDS011;33618;49.972;8.242;2022-11-11T01:59:30;73.47;;;7.60;;
47856;SDS011;33618;49.972;8.242;2022-11-11T02:01:59;32.38;;;7.20;;
47856;SDS011;33618;49.972;8.242;2022-11-11T02:04:28;56.58;;;7.32;;
47856;SDS011;33618;49.972;8.242;2022-11-11T02:07:15;41.42;;;6.88;;
47856;SDS011;33618;49.972;8.242;2022-11-11T02:09:44;45.63;;;7.78;;
47856;SDS011;33618;49.972;8.242;2022-11-11T02:12:13;20.05;;;6.55;;
47856;SDS011;33618;49.972;8.242;2022-11-11T02:14:59;60.20;;;7.83;;
47856;SDS011;33618;49.972;8.242;2022-11-11T02:17:28;43.83;;;7.20;;
47856;SDS011;33618;49.972;8.242;2022-11-11T02:23:51;62.28;;;7.65;;
47856;SDS011;33618;49.972;8.242;2022-11-11T02:26:45;30.70;;;7.25;;
47856;SDS011;33618;49.972;8.242;2022-11-11T02:29:16;43.95;;;7.82;;
47856;SDS011;33618;49.972;8.242;2022-11-11T02:31:45;47.65;;;7.13;;
47856;SDS011;33618;49.972;8.242;2022-11-11T02:34:12;39.10;;;7.97;;
47856;SDS011;33618;49.972;8.242;2022-11-11T02:36:39;94.13;;;8.20;;
47856;SDS011;33618;49.972;8.242;2022-11-11T02:39:09;56.50;;;8.13;;
47856;SDS011;33618;49.972;8.242;2022-11-11T02:41:36;48.58;;;8.13;;
47856;SDS011;33618;49.972;8.242;2022-11-11T02:44:25;49.60;;;7.60;;
47856;SDS011;33618;49.972;8.242;2022-11-11T02:46:52;59.40;;;7.35;;
47856;SDS011;33618;49.972;8.242;2022-11-11T02:49:20;41.00;;;8.43;;
47856;SDS011;33618;49.972;8.242;2022-11-11T02:51:47;47.58;;;7.70;;
47856;SDS011;33618;49.972;8.242;2022-11-11T02:54:15;51.92;;;7.57;;
47856;SDS011;33618;49.972;8.242;2022-11-11T02:56:42;32.67;;;7.35;;
47856;SDS011;33618;49.972;8.242;2022-11-11T02:59:28;53.22;;;7.82;;
47856;SDS011;33618;49.972;8.242;2022-11-11T03:01:55;60.75;;;8.73;;
47856;SDS011;33618;49.972;8.242;2022-11-11T03:04:24;80.63;;;8.68;;
47856;SDS011;33618;49.972;8.242;2022-11-11T03:06:51;40.08;;;8.57;;
47856;SDS011;33618;49.972;8.242;2022-11-11T03:09:19;74.35;;;8.75;;
47856;SDS011;33618;49.972;8.242;2022-11-11T03:11:46;36.38;;;7.95;;
47856;SDS011;33618;49.972;8.242;2022-11-11T03:14:13;52.00;;;9.98;;
47856;SDS011;33618;49.972;8.242;2022-11-11T03:16:40;37.53;;;9.07;;
47856;SDS011;33618;49.972;8.242;2022-11-11T03:19:26;55.92;;;8.82;;
47856;SDS011;33618;49.972;8.242;2022-11-11T03:21:53;103.10;;;10.05;;
47856;SDS011;33618;49.972;8.242;2022-11-11T03:24:41;45.58;;;8.70;;
47856;SDS011;33618;49.972;8.242;2022-11-11T03:27:26;94.13;;;8.93;;
47856;SDS011;33618;49.972;8.242;2022-11-11T03:29:54;84.38;;;10.65;;
47856;SDS011;33618;49.972;8.242;2022-11-11T03:32:21;66.90;;;10.05;;
47856;SDS011;33618;49.972;8.242;2022-11-11T03:34:48;35.78;;;8.80;;
47856;SDS011;33618;49.972;8.242;2022-11-11T03:37:15;55.40;;;9.63;;
47856;SDS011;33618;49.972;8.242;2022-11-11T03:40:09;28.83;;;9.05;;
47856;SDS011;33618;49.972;8.242;2022-11-11T03:42:36;228.38;;;13.50;;
47856;SDS011;33618;49.972;8.242;2022-11-11T03:45:03;111.97;;;10.05;;
47856;SDS011;33618;49.972;8.242;2022-11-11T03:47:30;48.47;;;8.55;;
47856;SDS011;33618;49.972;8.242;2022-11-11T03:49:56;154.93;;;10.45;;
47856;SDS011;33618;49.972;8.242;2022-11-11T03:52:23;51.03;;;9.40;;
47856;SDS011;33618;49.972;8.242;2022-11-11T03:54:50;83.13;;;9.15;;
47856;SDS011;33618;49.972;8.242;2022-11-11T03:57:17;207.88;;;13.25;;
47856;SDS011;33618;49.972;8.242;2022-11-11T03:59:56;91.78;;;8.73;;
47856;SDS011;33618;49.972;8.242;2022-11-11T04:02:24;150.10;;;10.30;;
47856;SDS011;33618;49.972;8.242;2022-11-11T04:05:09;183.55;;;11.10;;
47856;SDS011;33618;49.972;8.242;2022-11-11T04:07:55;199.10;;;11.60;;
47856;SDS011;33618;49.972;8.242;2022-11-11T04:10:40;113.60;;;9.63;;
47856;SDS011;33618;49.972;8.242;2022-11-11T04:13:07;131.80;;;10.20;;
47856;SDS011;33618;49.972;8.242;2022-11-11T04:15:53;99.22;;;9.52;;
47856;SDS011;33618;49.972;8.242;2022-11-11T04:18:35;119.65;;;9.60;;
47856;SDS011;33618;49.972;8.242;2022-11-11T04:21:22;62.85;;;9.13;;
47856;SDS011;33618;49.972;8.242;2022-11-11T04:27:00;68.93;;;8.23;;
47856;SDS011;33618;49.972;8.242;2022-11-11T04:29:29;92.22;;;8.65;;
47856;SDS011;33618;49.972;8.242;2022-11-11T04:34:53;83.70;;;8.38;;
47856;SDS011;33618;49.972;8.242;2022-11-11T04:37:36;76.65;;;8.10;;
47856;SDS011;33618;49.972;8.242;2022-11-11T04:40:11;75.72;;;7.80;;
47856;SDS011;33618;49.972;8.242;2022-11-11T04:42:57;95.63;;;7.97;;
47856;SDS011;33618;49.972;8.242;2022-11-11T04:45:24;59.72;;;7.55;;
47856;SDS011;33618;49.972;8.242;2022-11-11T04:48:00;57.28;;;7.22;;
47856;SDS011;33618;49.972;8.242;2022-11-11T04:50:36;31.77;;;6.05;;
47856;SDS011;33618;49.972;8.242;2022-11-11T04:53:13;22.08;;;6.28;;
47856;SDS011;33618;49.972;8.242;2022-11-11T04:55:41;32.60;;;6.72;;
47856;SDS011;33618;49.972;8.242;2022-11-11T04:58:34;19.70;;;6.82;;
47856;SDS011;33618;49.972;8.242;2022-11-11T05:01:01;42.00;;;6.45;;
47856;SDS011;33618;49.972;8.242;2022-11-11T05:03:28;41.13;;;6.85;;
47856;SDS011;33618;49.972;8.242;2022-11-11T05:05:56;27.58;;;6.20;;
47856;SDS011;33618;49.972;8.242;2022-11-11T05:08:47;29.08;;;5.63;;
47856;SDS011;33618;49.972;8.242;2022-11-11T05:11:23;11.93;;;5.65;;
47856;SDS011;33618;49.972;8.242;2022-11-11T05:13:58;44.13;;;6.43;;
47856;SDS011;33618;49.972;8.242;2022-11-11T05:16:48;21.05;;;5.38;;
47856;SDS011;33618;49.972;8.242;2022-11-11T05:19:42;24.63;;;5.22;;
47856;SDS011;33618;49.972;8.242;2022-11-11T05:22:40;22.63;;;5.97;;
47856;SDS011;33618;49.972;8.242;2022-11-11T05:25:14;16.85;;;5.78;;
47856;SDS011;33618;49.972;8.242;2022-11-11T05:27:53;18.67;;;5.35;;
47856;SDS011;33618;49.972;8.242;2022-11-11T05:30:21;15.75;;;5.00;;
47856;SDS011;33618;49.972;8.242;2022-11-11T05:32:49;13.27;;;5.95;;
47856;SDS011;33618;49.972;8.242;2022-11-11T05:35:17;25.58;;;5.00;;
47856;SDS011;33618;49.972;8.242;2022-11-11T05:37:52;16.52;;;4.57;;
47856;SDS011;33618;49.972;8.242;2022-11-11T05:40:45;10.63;;;5.65;;
47856;SDS011;33618;49.972;8.242;2022-11-11T05:43:13;10.52;;;5.07;;
47856;SDS011;33618;49.972;8.242;2022-11-11T05:45:42;11.65;;;5.43;;
47856;SDS011;33618;49.972;8.242;2022-11-11T05:48:09;14.05;;;5.10;;
47856;SDS011;33618;49.972;8.242;2022-11-11T05:50:36;12.23;;;5.38;;
47856;SDS011;33618;49.972;8.242;2022-11-11T05:53:11;30.27;;;5.28;;
47856;SDS011;33618;49.972;8.242;2022-11-11T05:55:38;11.05;;;6.00;;
47856;SDS011;33618;49.972;8.242;2022-11-11T05:58:05;10.98;;;5.47;;
47856;SDS011;33618;49.972;8.242;2022-11-11T06:00:32;16.83;;;5.18;;
47856;SDS011;33618;49.972;8.242;2022-11-11T06:03:03;21.52;;;5.30;;
47856;SDS011;33618;49.972;8.242;2022-11-11T06:05:34;15.90;;;5.28;;
47856;SDS011;33618;49.972;8.242;2022-11-11T06:08:04;14.68;;;5.45;;
47856;SDS011;33618;49.972;8.242;2022-11-11T06:10:32;33.75;;;5.32;;
47856;SDS011;33618;49.972;8.242;2022-11-11T06:13:05;15.13;;;5.60;;
47856;SDS011;33618;49.972;8.242;2022-11-11T06:15:36;11.80;;;5.10;;
47856;SDS011;33618;49.972;8.242;2022-11-11T06:18:08;8.88;;;5.53;;
47856;SDS011;33618;49.972;8.242;2022-11-11T06:20:35;17.15;;;5.40;;
47856;SDS011;33618;49.972;8.242;2022-11-11T06:23:03;30.55;;;6.22;;
47856;SDS011;33618;49.972;8.242;2022-11-11T06:25:31;27.80;;;6.22;;
47856;SDS011;33618;49.972;8.242;2022-11-11T06:28:24;20.50;;;6.05;;
47856;SDS011;33618;49.972;8.242;2022-11-11T06:30:56;12.05;;;5.88;;
47856;SDS011;33618;49.972;8.242;2022-11-11T06:33:23;22.70;;;6.63;;
47856;SDS011;33618;49.972;8.242;2022-11-11T06:35:50;22.48;;;5.65;;
47856;SDS011;33618;49.972;8.242;2022-11-11T06:38:17;11.95;;;5.57;;
47856;SDS011;33618;49.972;8.242;2022-11-11T06:40:45;16.77;;;5.03;;
47856;SDS011;33618;49.972;8.242;2022-11-11T06:43:13;9.40;;;5.20;;
47856;SDS011;33618;49.972;8.242;2022-11-11T06:45:43;11.02;;;4.72;;
47856;SDS011;33618;49.972;8.242;2022-11-11T06:48:10;19.58;;;4.85;;
47856;SDS011;33618;49.972;8.242;2022-11-11T06:50:37;23.60;;;4.85;;
47856;SDS011;33618;49.972;8.242;2022-11-11T06:53:14;28.48;;;4.90;;
47856;SDS011;33618;49.972;8.242;2022-11-11T06:55:43;8.63;;;5.18;;
47856;SDS011;33618;49.972;8.242;2022-11-11T06:58:13;17.13;;;6.18;;
47856;SDS011;33618;49.972;8.242;2022-11-11T07:00:42;21.88;;;7.47;;
47856;SDS011;33618;49.972;8.242;2022-11-11T07:03:16;22.88;;;5.80;;
47856;SDS011;33618;49.972;8.242;2022-11-11T07:05:53;11.25;;;4.90;;
47856;SDS011;33618;49.972;8.242;2022-11-11T07:08:24;12.82;;;5.10;;
47856;SDS011;33618;49.972;8.242;2022-11-11T07:10:52;24.42;;;5.03;;
47856;SDS011;33618;49.972;8.242;2022-11-11T07:13:20;12.73;;;5.20;;
47856;SDS011;33618;49.972;8.242;2022-11-11T07:15:47;38.92;;;5.82;;
47856;SDS011;33618;49.972;8.242;2022-11-11T07:18:14;27.63;;;6.03;;
47856;SDS011;33618;49.972;8.242;2022-11-11T07:20:41;13.48;;;5.05;;
47856;SDS011;33618;49.972;8.242;2022-11-11T07:23:08;34.20;;;5.45;;
47856;SDS011;33618;49.972;8.242;2022-11-11T07:25:35;50.80;;;5.70;;
47856;SDS011;33618;49.972;8.242;2022-11-11T07:28:05;22.70;;;5.18;;
47856;SDS011;33618;49.972;8.242;2022-11-11T07:30:33;20.58;;;5.90;;
47856;SDS011;33618;49.972;8.242;2022-11-11T07:33:00;31.23;;;5.78;;
47856;SDS011;33618;49.972;8.242;2022-11-11T07:35:27;17.38;;;5.80;;
47856;SDS011;33618;49.972;8.242;2022-11-11T07:37:54;31.50;;;6.10;;
47856;SDS011;33618;49.972;8.242;2022-11-11T07:40:21;66.78;;;6.20;;
47856;SDS011;33618;49.972;8.242;2022-11-11T07:42:48;31.90;;;5.85;;
47856;SDS011;33618;49.972;8.242;2022-11-11T07:45:15;19.67;;;5.72;;
47856;SDS011;33618;49.972;8.242;2022-11-11T07:47:42;35.63;;;6.03;;
47856;SDS011;33618;49.972;8.242;2022-11-11T07:50:10;22.10;;;5.93;;
47856;SDS011;33618;49.972;8.242;2022-11-11T07:52:47;25.38;;;5.60;;
47856;SDS011;33618;49.972;8.242;2022-11-11T07:55:14;20.92;;;5.78;;
47856;SDS011;33618;49.972;8.242;2022-11-11T07:57:42;28.17;;;5.55;;
47856;SDS011;33618;49.972;8.242;2022-11-11T08:00:16;17.05;;;5.28;;
47856;SDS011;33618;49.972;8.242;2022-11-11T08:02:47;32.45;;;5.63;;
47856;SDS011;33618;49.972;8.242;2022-11-11T08:05:24;24.13;;;5.70;;
47856;SDS011;33618;49.972;8.242;2022-11-11T08:07:51;38.95;;;5.63;;
47856;SDS011;33618;49.972;8.242;2022-11-11T08:10:25;38.90;;;6.13;;
47856;SDS011;33618;49.972;8.242;2022-11-11T08:12:53;30.77;;;5.68;;
47856;SDS011;33618;49.972;8.242;2022-11-11T08:15:39;33.80;;;5.72;;
47856;SDS011;33618;49.972;8.242;2022-11-11T08:18:07;25.33;;;5.53;;
47856;SDS011;33618;49.972;8.242;2022-11-11T08:20:35;29.88;;;6.18;;
47856;SDS011;33618;49.972;8.242;2022-11-11T08:23:10;13.43;;;5.38;;
47856;SDS011;33618;49.972;8.242;2022-11-11T08:26:04;15.90;;;5.90;;
47856;SDS011;33618;49.972;8.242;2022-11-11T08:28:32;24.80;;;5.82;;
47856;SDS011;33618;49.972;8.242;2022-11-11T08:31:00;26.48;;;6.07;;
47856;SDS011;33618;49.972;8.242;2022-11-11T08:33:29;37.05;;;6.20;;
47856;SDS011;33618;49.972;8.242;2022-11-11T08:36:00;17.42;;;5.95;;
47856;SDS011;33618;49.972;8.242;2022-11-11T08:38:28;34.80;;;6.57;;
47856;SDS011;33618;49.972;8.242;2022-11-11T08:40:58;18.58;;;6.25;;
47856;SDS011;33618;49.972;8.242;2022-11-11T08:43:28;35.60;;;7.00;;
47856;SDS011;33618;49.972;8.242;2022-11-11T08:46:02;14.50;;;6.38;;
47856;SDS011;33618;49.972;8.242;2022-11-11T08:48:33;34.45;;;6.50;;
47856;SDS011;33618;49.972;8.242;2022-11-11T08:51:00;17.90;;;6.22;;
47856;SDS011;33618;49.972;8.242;2022-11-11T08:53:28;13.10;;;5.90;;
47856;SDS011;33618;49.972;8.242;2022-11-11T08:55:56;16.92;;;6.15;;
47856;SDS011;33618;49.972;8.242;2022-11-11T08:58:31;13.75;;;6.53;;
47856;SDS011;33618;49.972;8.242;2022-11-11T09:00:58;20.17;;;6.20;;
47856;SDS011;33618;49.972;8.242;2022-11-11T09:03:29;19.55;;;6.72;;
47856;SDS011;33618;49.972;8.242;2022-11-11T09:05:56;11.20;;;6.32;;
47856;SDS011;33618;49.972;8.242;2022-11-11T09:08:23;11.15;;;7.15;;
47856;SDS011;33618;49.972;8.242;2022-11-11T09:10:50;15.52;;;7.30;;
47856;SDS011;33618;49.972;8.242;2022-11-11T09:13:17;15.02;;;8.18;;
47856;SDS011;33618;49.972;8.242;2022-11-11T09:15:51;18.40;;;7.60;;
47856;SDS011;33618;49.972;8.242;2022-11-11T09:18:19;28.73;;;7.95;;
47856;SDS011;33618;49.972;8.242;2022-11-11T09:20:46;15.48;;;7.30;;
47856;SDS011;33618;49.972;8.242;2022-11-11T09:23:13;13.02;;;7.63;;
47856;SDS011;33618;49.972;8.242;2022-11-11T09:25:42;15.85;;;8.23;;
47856;SDS011;33618;49.972;8.242;2022-11-11T09:28:11;14.70;;;8.10;;
47856;SDS011;33618;49.972;8.242;2022-11-11T09:30:38;12.98;;;7.22;;
47856;SDS011;33618;49.972;8.242;2022-11-11T09:33:05;31.38;;;8.60;;
47856;SDS011;33618;49.972;8.242;2022-11-11T09:35:33;15.60;;;7.72;;
47856;SDS011;33618;49.972;8.242;2022-11-11T09:38:01;12.93;;;7.95;;
47856;SDS011;33618;49.972;8.242;2022-11-11T09:40:34;17.25;;;7.70;;
47856;SDS011;33618;49.972;8.242;2022-11-11T09:51:46;21.73;;;8.95;;
47856;SDS011;33618;49.972;8.242;2022-11-11T09:54:18;16.50;;;8.82;;
47856;SDS011;33618;49.972;8.242;2022-11-11T09:56:56;17.77;;;9.05;;
47856;SDS011;33618;49.972;8.242;2022-11-11T09:59:38;16.95;;;8.63;;
47856;SDS011;33618;49.972;8.242;2022-11-11T10:02:29;19.05;;;8.82;;
47856;SDS011;33618;49.972;8.242;2022-11-11T10:08:32;15.52;;;8.60;;
47856;SDS011;33618;49.972;8.242;2022-11-11T10:14:08;14.50;;;8.35;;
47856;SDS011;33618;49.972;8.242;2022-11-11T10:19:24;14.10;;;8.30;;
47856;SDS011;33618;49.972;8.242;2022-11-11T10:22:40;11.82;;;7.80;;
47856;SDS011;33618;49.972;8.242;2022-11-11T10:24:57;14.63;;;7.78;;
47856;SDS011;33618;49.972;8.242;2022-11-11T10:27:43;14.88;;;7.90;;
47856;SDS011;33618;49.972;8.242;2022-11-11T10:33:03;11.45;;;7.85;;
47856;SDS011;33618;49.972;8.242;2022-11-11T10:35:44;12.27;;;8.07;;
47856;SDS011;33618;49.972;8.242;2022-11-11T10:41:03;12.90;;;8.30;;
47856;SDS011;33618;49.972;8.242;2022-11-11T10:43:51;12.45;;;8.10;;
47856;SDS011;33618;49.972;8.242;2022-11-11T10:46:29;12.98;;;8.10;;
47856;SDS011;33618;49.972;8.242;2022-11-11T10:49:17;10.93;;;7.40;;
47856;SDS011;33618;49.972;8.242;2022-11-11T10:51:50;12.48;;;8.02;;
47856;SDS011;33618;49.972;8.242;2022-11-11T10:57:02;12.38;;;7.30;;
47856;SDS011;33618;49.972;8.242;2022-11-11T10:59:48;10.27;;;7.68;;
47856;SDS011;33618;49.972;8.242;2022-11-11T11:02:29;10.82;;;7.82;;
47856;SDS011;33618;49.972;8.242;2022-11-11T11:05:26;12.77;;;8.40;;
47856;SDS011;33618;49.972;8.242;2022-11-11T11:08:10;11.38;;;7.80;;
47856;SDS011;33618;49.972;8.242;2022-11-11T11:10:52;10.52;;;7.85;;
47856;SDS011;33618;49.972;8.242;2022-11-11T11:13:42;10.65;;;7.82;;
47856;SDS011;33618;49.972;8.242;2022-11-11T11:19:22;14.45;;;7.78;;
47856;SDS011;33618;49.972;8.242;2022-11-11T11:21:54;11.30;;;7.43;;
47856;SDS011;33618;49.972;8.242;2022-11-11T11:24:40;10.55;;;7.88;;
47856;SDS011;33618;49.972;8.242;2022-11-11T11:29:40;11.65;;;7.65;;
47856;SDS011;33618;49.972;8.242;2022-11-11T11:38:10;12.10;;;8.25;;
47856;SDS011;33618;49.972;8.242;2022-11-11T11:43:33;10.30;;;7.68;;
47856;SDS011;33618;49.972;8.242;2022-11-11T11:49:09;13.50;;;8.45;;
47856;SDS011;33618;49.972;8.242;2022-11-11T12:00:27;11.45;;;8.15;;
47856;SDS011;33618;49.972;8.242;2022-11-11T12:14:31;13.32;;;7.90;;
47856;SDS011;33618;49.972;8.242;2022-11-11T12:17:35;13.13;;;8.25;;
47856;SDS011;33618;49.972;8.242;2022-11-11T12:20:29;11.40;;;8.13;;
47856;SDS011;33618;49.972;8.242;2022-11-11T12:26:06;11.75;;;8.40;;
47856;SDS011;33618;49.972;8.242;2022-11-11T12:31:46;12.63;;;8.75;;
47856;SDS011;33618;49.972;8.242;2022-11-11T12:37:10;14.15;;;9.73;;
47856;SDS011;33618;49.972;8.242;2022-11-11T12:47:57;14.68;;;9.98;;
47856;SDS011;33618;49.972;8.242;2022-11-11T13:05:47;15.25;;;10.80;;
47856;SDS011;33618;49.972;8.242;2022-11-11T13:11:25;20.67;;;10.27;;
47856;SDS011;33618;49.972;8.242;2022-11-11T13:16:49;17.98;;;10.68;;
47856;SDS011;33618;49.972;8.242;2022-11-11T13:19:35;17.13;;;10.57;;
47856;SDS011;33618;49.972;8.242;2022-11-11T13:22:18;15.07;;;10.30;;
47856;SDS011;33618;49.972;8.242;2022-11-11T13:24:54;24.35;;;11.07;;
47856;SDS011;33618;49.972;8.242;2022-11-11T13:33:12;19.25;;;10.85;;
47856;SDS011;33618;49.972;8.242;2022-11-11T13:35:56;14.55;;;9.82;;
47856;SDS011;33618;49.972;8.242;2022-11-11T13:41:38;17.40;;;10.73;;
47856;SDS011;33618;49.972;8.242;2022-11-11T13:44:08;19.10;;;10.82;;
47856;SDS011;33618;49.972;8.242;2022-11-11T13:46:47;15.25;;;10.98;;
47856;SDS011;33618;49.972;8.242;2022-11-11T13:49:35;18.15;;;10.93;;
47856;SDS011;33618;49.972;8.242;2022-11-11T13:52:21;22.10;;;11.35;;
47856;SDS011;33618;49.972;8.242;2022-11-11T13:55:22;16.90;;;10.85;;
47856;SDS011;33618;49.972;8.242;2022-11-11T13:57:56;41.22;;;11.60;;
47856;SDS011;33618;49.972;8.242;2022-11-11T14:00:25;17.75;;;10.60;;
47856;SDS011;33618;49.972;8.242;2022-11-11T14:05:43;18.77;;;11.63;;
47856;SDS011;33618;49.972;8.242;2022-11-11T14:13:56;20.17;;;12.25;;
47856;SDS011;33618;49.972;8.242;2022-11-11T14:24:41;21.88;;;12.50;;
47856;SDS011;33618;49.972;8.242;2022-11-11T14:29:37;21.25;;;12.77;;
47856;SDS011;33618;49.972;8.242;2022-11-11T14:35:20;19.95;;;12.80;;
47856;SDS011;33618;49.972;8.242;2022-11-11T14:40:39;20.15;;;12.70;;
47856;SDS011;33618;49.972;8.242;2022-11-11T14:46:07;26.20;;;13.07;;
47856;SDS011;33618;49.972;8.242;2022-11-11T14:51:33;25.48;;;13.27;;
47856;SDS011;33618;49.972;8.242;2022-11-11T14:54:02;30.55;;;13.48;;
47856;SDS011;33618;49.972;8.242;2022-11-11T14:56:31;31.70;;;14.02;;
47856;SDS011;33618;49.972;8.242;2022-11-11T14:59:02;24.10;;;12.95;;
47856;SDS011;33618;49.972;8.242;2022-11-11T15:01:32;24.17;;;13.18;;
47856;SDS011;33618;49.972;8.242;2022-11-11T15:04:00;24.73;;;13.27;;
47856;SDS011;33618;49.972;8.242;2022-11-11T15:06:31;28.30;;;13.55;;
47856;SDS011;33618;49.972;8.242;2022-11-11T15:09:18;24.27;;;14.32;;
47856;SDS011;33618;49.972;8.242;2022-11-11T15:14:54;27.08;;;14.07;;
47856;SDS011;33618;49.972;8.242;2022-11-11T15:20:41;28.75;;;14.07;;
47856;SDS011;33618;49.972;8.242;2022-11-11T15:23:35;67.97;;;13.63;;
47856;SDS011;33618;49.972;8.242;2022-11-11T15:31:40;28.50;;;14.10;;
47856;SDS011;33618;49.972;8.242;2022-11-11T15:34:26;68.18;;;15.48;;
47856;SDS011;33618;49.972;8.242;2022-11-11T15:37:00;56.25;;;13.50;;
47856;SDS011;33618;49.972;8.242;2022-11-11T15:39:53;32.65;;;12.75;;
47856;SDS011;33618;49.972;8.242;2022-11-11T15:42:23;77.88;;;13.23;;
47856;SDS011;33618;49.972;8.242;2022-11-11T15:44:57;76.15;;;13.63;;
47856;SDS011;33618;49.972;8.242;2022-11-11T15:47:27;51.10;;;12.57;;
47856;SDS011;33618;49.972;8.242;2022-11-11T15:49:59;47.10;;;13.00;;
47856;SDS011;33618;49.972;8.242;2022-11-11T15:54:58;70.55;;;12.95;;
47856;SDS011;33618;49.972;8.242;2022-11-11T15:57:28;27.33;;;12.05;;
47856;SDS011;33618;49.972;8.242;2022-11-11T15:59:59;112.65;;;19.65;;
47856;SDS011;33618;49.972;8.242;2022-11-11T16:02:32;73.35;;;23.20;;
47856;SDS011;33618;49.972;8.242;2022-11-11T16:05:02;37.05;;;14.95;;
47856;SDS011;33618;49.972;8.242;2022-11-11T16:07:34;42.00;;;14.27;;
47856;SDS011;33618;49.972;8.242;2022-11-11T16:10:06;26.45;;;14.68;;
47856;SDS011;33618;49.972;8.242;2022-11-11T16:18:31;44.10;;;11.50;;
47856;SDS011;33618;49.972;8.242;2022-11-11T16:21:13;25.10;;;11.20;;
47856;SDS011;33618;49.972;8.242;2022-11-11T16:23:44;37.97;;;11.85;;
47856;SDS011;33618;49.972;8.242;2022-11-11T16:26:12;20.45;;;11.15;;
47856;SDS011;33618;49.972;8.242;2022-11-11T16:28:46;35.22;;;11.02;;
47856;SDS011;33618;49.972;8.242;2022-11-11T16:34:22;27.13;;;11.25;;
47856;SDS011;33618;49.972;8.242;2022-11-11T16:37:02;19.20;;;10.65;;
47856;SDS011;33618;49.972;8.242;2022-11-11T16:39:40;23.77;;;11.50;;
47856;SDS011;33618;49.972;8.242;2022-11-11T16:52:52;26.92;;;10.75;;
47856;SDS011;33618;49.972;8.242;2022-11-11T16:57:58;44.25;;;12.77;;
47856;SDS011;33618;49.972;8.242;2022-11-11T17:00:28;58.85;;;12.85;;
47856;SDS011;33618;49.972;8.242;2022-11-11T17:11:08;26.92;;;12.20;;
47856;SDS011;33618;49.972;8.242;2022-11-11T17:13:37;34.85;;;12.02;;
47856;SDS011;33618;49.972;8.242;2022-11-11T17:16:08;24.35;;;12.77;;
47856;SDS011;33618;49.972;8.242;2022-11-11T17:18:36;42.50;;;12.40;;
47856;SDS011;33618;49.972;8.242;2022-11-11T17:21:04;22.52;;;12.18;;
47856;SDS011;33618;49.972;8.242;2022-11-11T17:23:32;32.33;;;11.68;;
47856;SDS011;33618;49.972;8.242;2022-11-11T17:26:05;64.75;;;11.93;;
47856;SDS011;33618;49.972;8.242;2022-11-11T17:28:33;30.85;;;12.27;;
47856;SDS011;33618;49.972;8.242;2022-11-11T17:31:02;28.90;;;10.80;;
47856;SDS011;33618;49.972;8.242;2022-11-11T17:33:30;26.88;;;11.45;;
47856;SDS011;33618;49.972;8.242;2022-11-11T17:35:57;25.85;;;9.98;;
47856;SDS011;33618;49.972;8.242;2022-11-11T17:38:26;24.65;;;10.88;;
47856;SDS011;33618;49.972;8.242;2022-11-11T17:40:55;28.27;;;10.40;;
47856;SDS011;33618;49.972;8.242;2022-11-11T17:43:22;24.80;;;11.38;;
47856;SDS011;33618;49.972;8.242;2022-11-11T17:45:51;23.05;;;10.80;;
47856;SDS011;33618;49.972;8.242;2022-11-11T17:48:18;20.77;;;11.07;;
47856;SDS011;33618;49.972;8.242;2022-11-11T17:50:45;32.35;;;11.95;;
47856;SDS011;33618;49.972;8.242;2022-11-11T17:53:13;24.50;;;12.10;;
47856;SDS011;33618;49.972;8.242;2022-11-11T17:55:42;28.17;;;12.13;;
47856;SDS011;33618;49.972;8.242;2022-11-11T17:58:10;26.90;;;12.10;;
47856;SDS011;33618;49.972;8.242;2022-11-11T18:00:39;22.30;;;11.23;;
47856;SDS011;33618;49.972;8.242;2022-11-11T18:03:06;21.23;;;11.07;;
47856;SDS011;33618;49.972;8.242;2022-11-11T18:05:34;24.67;;;11.38;;
47856;SDS011;33618;49.972;8.242;2022-11-11T18:08:01;27.05;;;11.35;;
47856;SDS011;33618;49.972;8.242;2022-11-11T18:10:30;25.13;;;12.57;;
47856;SDS011;33618;49.972;8.242;2022-11-11T18:12:57;28.92;;;11.88;;
47856;SDS011;33618;49.972;8.242;2022-11-11T18:15:24;27.50;;;10.57;;
47856;SDS011;33618;49.972;8.242;2022-11-11T18:17:52;37.40;;;11.57;;
47856;SDS011;33618;49.972;8.242;2022-11-11T18:20:19;51.55;;;14.00;;
47856;SDS011;33618;49.972;8.242;2022-11-11T18:22:46;33.15;;;11.75;;
47856;SDS011;33618;49.972;8.242;2022-11-11T18:25:13;24.80;;;12.30;;
47856;SDS011;33618;49.972;8.242;2022-11-11T18:27:41;29.65;;;11.18;;
47856;SDS011;33618;49.972;8.242;2022-11-11T18:30:11;30.45;;;11.95;;